Turnhout, Belgium
Current Conditions -  °F | °C
As of 10:55 AM on Sunday 23 Nov 2014 (Local Time) from EHGR Reporting Station
Broken Clouds Broken Clouds  
Wind Chill: 12°   Ceiling: 23000
Heat Index: 12°   Visibility: 6mi
Dew Point: 10°   Wind: 5mph
Humidity: 88%   Direction: 150°SSE
Pressure: 30"   Gusts: NA
Location:  51.32°N, 4.94°E
Report Text: EHGR 230955Z AUTO 15004KT 9999 BKN230 12/10 Q1016 BLU
Loading
Personal Weather Stations






























Interactive Weather Map New forecast layout! Learn more

10-Day Weather Forecast

Advertisements
Track Severe Weather on mobile